Salvador do Sul, Brazil
Current Conditions -  °F | °C
As of 12:00 PM on Sunday 21 Dec 2014 (Local Time) from SBCO Reporting Station
Light Rain Light Rain  
Wind Chill: 75°   Ceiling: 4000
Heat Index: 75°   Visibility: 5mi
Dew Point: 73°   Wind: 7mph
Humidity: 94%   Direction: 120°ESE
Pressure: 29.56"   Gusts: NA
Location:  29.44°S, 51.51°W
Report Text: SBCO 211400Z 12006KT 8000 -RA BKN040 OVC100 24/23 Q1001 RERA
Loading
Personal Weather Stations






























Interactive Weather Map New forecast layout! Learn more

10-Day Weather Forecast

Advertisements
Track Severe Weather on mobile